Aktualne dane pomiarowe

Uwaga, wersja testowa! Automatyczne pobieranie danych za pomocą narzędzi lub skryptów to umożliwiających jest zabronione.

Dane meteo z obszaru Polski uzyskane na podstawie depesz SYNOP pobieranych co godzinę z NWS. Najedź myszką na symbol przedstawiony w tabeli, aby uzyskać informacje co do jego znaczenia. Prosimy pamiętać, że to testowa wersja strony, która jeszcze nie jest ukończona. Stworzono również jest krótki FAQ dotyczący korzystania z tej podstrony Anomalie temperatury w chwili obecnej odniesione są do okresu referencyjnego 1951-2016. Okres ten będzie później zmieniony na 1981-2010. Kliknij ikonę aby pobrać plik CSV. Kliknij ikonę aby wygenerować mapę synoptyczną dla danego terminu.

Wybierz Datę:    

        

Sandomierz (12585)

Dane terminowe dla wybranej stacji. Kliknij datę, aby otrzymać dane z tego terminu dla wszystkich stacji.

TemperaturaZachmurzenieWiatrCiśnienieOpadyPogoda
 Data t td wb tx tn tg rh  Nt Nl Cl Cm Ch ws wd g1 g2 wx mslp ppp ch 24h 12h t ww ww w1 w2  
2019-06-30 23:00:00 20.7 16.9 18.1--- 7945.0--3wx--31013.7 988.3 -0.2---------
2019-06-30 22:00:00 22.0 16.9 18.5--- 7335.0--3wx--31013.6 988.3 -0.1---------
2019-06-30 21:00:00 23.0 16.5 18.6--- 6745.0--2wx--21013.6 988.4 -0.1---------
2019-06-30 20:00:00 24.2 15.9 18.8--- 6050.0--3wx---1013.6 988.5 -0.4---------
2019-06-30 19:00:00 26.0 14.5 18.7--- 4940.0--2wx--21013.4 988.4 -0.8---------
2019-06-30 18:00:00 27.8 14.8 19.6 32.7 22.1- 4540.0--3wx--31013.3 988.5 -1.1- 0.012------
2019-06-30 17:00:00 30.0 13.7 19.9--- 3740.0--3wx--31013.6 988.9 -1.2---------
2019-06-30 16:00:00 31.2 14.4 20.6--- 3635.0--4wx--41013.8 989.2 -1.3---------
2019-06-30 15:00:00 32.4 12.6 20.2--- 3040.0--4wx--41014.1 989.6 -1.5---------
2019-06-30 14:00:00 32.2 12.4 20.0--- 3030.0--5wx--51014.6 990.1 -1.3---------
2019-06-30 13:00:00 32.0 12.8 20.1--- 3135.0--4wx--41015.0 990.5 -1.3---------
2019-06-30 12:00:00 31.4 12.2 19.6--- 3135.0--4wx--41015.7 991.1 -1.1- 0.06------
2019-06-30 11:00:00 30.4 13.2 19.8--- 3530.0--4wx--41016.1 991.4 -0.9---------
2019-06-30 10:00:00 29.4 13.2 19.4--- 3730.0--4wx--41016.6 991.8 -0.5---------
2019-06-30 09:00:00 27.9 12.7 18.6--- 3930.0--5wx--51017.1 992.2 -0.2---------
2019-06-30 08:00:00 26.6 13.0 18.2--- 4330.0--4wx--41017.3 992.3 0.1---------
2019-06-30 07:00:00 24.9 14.4 18.2--- 5230.0--3wx--31017.5 992.3 0.5---------
2019-06-30 06:00:00 22.2 14.6 17.3 24.1 15.4 15 6235.0--2wx--21017.8 992.4 0.9- 0.012----- 14.5
2019-06-30 05:00:00 19.3 13.2 15.4--- 6835.0--2wx--21017.9 992.2 0.5---------
2019-06-30 04:00:00 15.9 10.6 12.6--- 7140.0--2wx---1017.8 991.8 -0.1---------
2019-06-30 03:00:00 15.9 8.6 11.5--- 6250.0--2wx--21017.4 991.5 -0.7---------
2019-06-30 02:00:00 17.3 8.7 12.2--- 5750.0--3wx--31017.5 991.7 -0.6---------
2019-06-30 01:00:00 16.9 8.3 11.9--- 5750.0--3wx--31017.8 991.9 -0.6---------
2019-06-30 00:00:00 18.5 8.7 12.8--- 5350.0--3wx---1017.9 992.2 -0.3---------
2019-06-29 23:00:00 17.9 9.0 12.6--- 5645.0--2wx---1018.1 992.3 -0.3---------
2019-06-29 22:00:00 19.0 10.0 13.6--- 5623.0--2wx---1018.2 992.5 0.1---------
2019-06-29 21:00:00 19.1 11.1 14.2--- 6050.0--2wx---1018.2 992.5 0.5---------
2019-06-29 20:00:00 19.0 11.6 14.4--- 6245.0--2wx--21018.3 992.6 0.4---------
2019-06-29 19:00:00 21.3 11.0 15.1--- 5250.0--2wx--21017.9 992.4 -1.8---------
2019-06-29 18:00:00 24.1 11.4 16.4 25.9 16.5- 4540.0--1wx-1011017.2 992.0 -2.2- 0.012------
2019-06-29 17:00:00 25.3 10.0 16.3--- 3840.0--2wx---1017.3 992.2 -2.0---------
2019-06-29 16:00:00 25.5 8.9 15.9--- 3535.0--5wx---1019.4 994.2 0.0---------
2019-06-29 15:00:00 25.6 8.6 15.8--- 3440.0--4wx-1041019.4 994.2 0.0---------
2019-06-29 14:00:00 25.3 9.2 16.0--- 3635.0--5wx---1019.4 994.2 0.0---------
2019-06-29 13:00:00 24.7 8.2 15.3--- 3535.0--5wx---1019.4 994.2 -0.2---------
2019-06-29 12:00:00 23.6 8.4 14.9--- 3835.0--4wx-1141019.5 994.2 -0.5- 0.06------
2019-06-29 11:00:00 23.9 8.3 15.0--- 3735.0--6wx-961019.5 994.2 -0.8---------
2019-06-29 10:00:00 23.2 8.1 14.6--- 3835.0--6wx111161019.8 994.4 -0.9---------
2019-06-29 09:00:00 21.8 7.2 13.6--- 3935.0--6wx--61020.2 994.7 -0.7---------
2019-06-29 08:00:00 20.7 8.3 13.6--- 4530.0--4wx--41020.6 995.0 -0.6---------
2019-06-29 07:00:00 19.0 8.9 13.1--- 5240.0--2wx--21021.1 995.3 -0.4---------
2019-06-29 06:00:00 16.5 8.2 11.6 20.3 10.6 10 5840.0--2wx--21021.4 995.4 0.0- 0.012----- 13.4
2019-06-29 05:00:00 14.8 8.1 10.8--- 6445.0--3wx--31021.8 995.6 0.6---------
2019-06-29 04:00:00 12.9 7.1 9.4--- 6850.0--4wx--41022.0 995.7 0.7---------
2019-06-29 03:00:00 10.7 6.6 8.2--- 7650.0--4wx--41021.9 995.4 0.7---------
2019-06-29 02:00:00 11.0 6.5 8.3--- 7450.0--4wx--41021.5 995.0 0.4---------
2019-06-29 01:00:00 11.9 7.4 9.1--- 7450.0--3wx--31021.4 995.0 1.7---------
2019-06-29 00:00:00 12.6 7.9 9.7--- 7350.0--3wx--31021.0 994.7 1.4- 0.06------
1.2 ms

 

Print Friendly, PDF & Email